createdAt,value
2018-03-29T00:01:04.711Z,52.57
2018-03-29T00:02:49.495Z,52.07
2018-03-29T00:04:34.273Z,49.73
2018-03-29T00:06:19.059Z,55.73
2018-03-29T00:08:02.182Z,55.80
2018-03-29T00:09:46.984Z,55.27
2018-03-29T00:11:31.765Z,56.57
2018-03-29T00:13:16.571Z,61.07
2018-03-29T00:15:01.368Z,56.83
2018-03-29T00:16:46.192Z,58.50
2018-03-29T00:18:30.984Z,53.53
2018-03-29T00:20:14.865Z,55.30
2018-03-29T00:21:59.652Z,57.73
2018-03-29T00:23:44.434Z,54.40
2018-03-29T00:25:29.215Z,56.93
2018-03-29T00:27:14.002Z,61.50
2018-03-29T00:28:58.779Z,58.17
2018-03-29T00:30:43.555Z,52.33
2018-03-29T00:32:28.364Z,60.00
2018-03-29T00:34:13.146Z,59.90
2018-03-29T00:35:57.951Z,54.50
2018-03-29T00:37:42.751Z,57.67
2018-03-29T00:39:27.532Z,58.00
2018-03-29T00:41:12.066Z,58.23
2018-03-29T00:42:56.859Z,53.50
2018-03-29T00:44:41.655Z,54.93
2018-03-29T00:46:24.791Z,57.27
2018-03-29T00:48:08.692Z,58.40
2018-03-29T00:49:51.832Z,60.27
2018-03-29T00:51:34.960Z,59.47
2018-03-29T00:53:31.400Z,58.07
2018-03-29T00:55:15.906Z,53.23
2018-03-29T00:57:00.464Z,51.23
2018-03-29T00:58:45.266Z,57.40
2018-03-29T01:00:30.040Z,53.07
2018-03-29T01:02:14.815Z,56.37
2018-03-29T01:03:59.620Z,56.40
2018-03-29T01:05:44.403Z,50.40
2018-03-29T01:07:29.237Z,55.30
2018-03-29T01:09:14.016Z,54.77
2018-03-29T01:10:58.810Z,55.20
2018-03-29T01:12:43.616Z,51.97
2018-03-29T01:14:29.071Z,55.33
2018-03-29T01:16:13.849Z,55.37
2018-03-29T01:17:57.005Z,58.90
2018-03-29T01:19:40.130Z,55.60
2018-03-29T01:21:23.261Z,54.57
2018-03-29T01:23:07.162Z,61.70
2018-03-29T01:24:50.287Z,55.90
2018-03-29T01:26:33.406Z,58.00
2018-03-29T01:28:16.537Z,60.73
2018-03-29T01:29:59.677Z,54.83
2018-03-29T01:31:42.796Z,58.67
2018-03-29T01:33:26.714Z,58.17
2018-03-29T01:35:10.604Z,58.30
2018-03-29T01:36:53.733Z,65.90
2018-03-29T01:38:36.867Z,56.47
2018-03-29T01:40:19.984Z,58.13
2018-03-29T01:42:03.112Z,60.30
2018-03-29T01:43:46.257Z,57.80
2018-03-29T01:45:29.418Z,58.90
2018-03-29T01:47:12.541Z,58.43
2018-03-29T01:48:55.680Z,64.93
2018-03-29T01:50:39.569Z,60.67
2018-03-29T01:52:22.691Z,59.00
2018-03-29T01:54:05.888Z,56.80
2018-03-29T01:55:49.046Z,57.57
2018-03-29T01:57:32.184Z,58.67
2018-03-29T01:59:16.096Z,64.57
2018-03-29T02:00:59.287Z,63.33
2018-03-29T02:02:43.134Z,62.90
2018-03-29T02:04:26.309Z,59.47
2018-03-29T02:06:09.493Z,60.50
2018-03-29T02:07:52.616Z,64.13
2018-03-29T02:09:35.772Z,64.30
2018-03-29T02:11:18.908Z,60.20
2018-03-29T02:13:02.037Z,60.27
2018-03-29T02:14:45.178Z,63.57
2018-03-29T02:16:28.297Z,60.27
2018-03-29T02:18:11.408Z,60.97
2018-03-29T02:19:54.545Z,59.10
2018-03-29T02:21:37.701Z,62.27
2018-03-29T02:23:20.826Z,59.30
2018-03-29T02:25:03.976Z,63.00
2018-03-29T02:26:47.109Z,69.33
2018-03-29T02:28:31.063Z,63.57
2018-03-29T02:30:14.165Z,64.13
2018-03-29T02:31:58.066Z,61.33
2018-03-29T02:33:41.208Z,72.37
2018-03-29T02:35:25.193Z,66.50
2018-03-29T02:37:09.054Z,64.27
2018-03-29T02:38:52.216Z,64.53
2018-03-29T02:40:35.363Z,75.43
2018-03-29T02:42:18.486Z,75.97
2018-03-29T02:44:01.614Z,63.50
2018-03-29T02:45:44.762Z,67.40
2018-03-29T02:47:28.656Z,74.60
2018-03-29T02:49:11.801Z,64.83
2018-03-29T02:50:54.939Z,67.03
2018-03-29T02:52:38.837Z,68.10
2018-03-29T02:54:21.979Z,65.33
2018-03-29T02:56:05.888Z,66.97
2018-03-29T02:57:49.026Z,67.80
2018-03-29T02:59:32.142Z,66.70
2018-03-29T03:01:15.299Z,68.97
2018-03-29T03:02:58.421Z,64.73
2018-03-29T03:04:41.542Z,64.97
2018-03-29T03:06:24.665Z,69.20
2018-03-29T03:08:07.796Z,72.67
2018-03-29T03:09:50.928Z,74.03
2018-03-29T03:11:34.076Z,69.17
2018-03-29T03:13:18.009Z,71.17
2018-03-29T03:15:01.933Z,84.40
2018-03-29T03:16:45.840Z,73.97
2018-03-29T03:18:28.963Z,72.60
2018-03-29T03:20:13.490Z,78.53
2018-03-29T03:22:01.567Z,75.60
2018-03-29T03:23:46.956Z,80.67
2018-03-29T03:25:39.812Z,72.80
2018-03-29T03:27:24.361Z,74.73
2018-03-29T03:29:14.390Z,72.37
2018-03-29T03:31:00.289Z,73.30
2018-03-29T03:32:51.694Z,76.00
2018-03-29T03:34:36.758Z,69.47
2018-03-29T03:36:19.911Z,69.93
2018-03-29T03:38:04.605Z,63.97
2018-03-29T03:39:49.139Z,61.60
2018-03-29T03:41:33.690Z,69.55
2018-03-29T03:43:18.449Z,70.70
2018-03-29T03:45:01.577Z,71.62
2018-03-29T03:46:44.715Z,69.33
2018-03-29T03:48:29.233Z,64.97
2018-03-29T03:50:13.879Z,61.53
2018-03-29T03:51:58.390Z,65.10
2018-03-29T03:53:42.879Z,58.35
2018-03-29T03:55:26.798Z,58.47
2018-03-29T03:57:09.940Z,55.77
2018-03-29T03:58:53.095Z,52.87
2018-03-29T04:00:36.981Z,46.97
2018-03-29T04:02:20.156Z,46.47
2018-03-29T04:04:03.243Z,42.70
2018-03-29T04:05:46.373Z,43.33
2018-03-29T04:07:29.530Z,44.90
2018-03-29T04:09:12.640Z,38.50
2018-03-29T04:10:55.778Z,36.67
2018-03-29T04:12:38.916Z,36.77
2018-03-29T04:14:22.055Z,31.87
2018-03-29T04:16:05.171Z,30.57
2018-03-29T04:17:49.074Z,27.60
2018-03-29T04:19:32.221Z,27.00
2018-03-29T04:21:15.400Z,28.90
2018-03-29T04:22:58.543Z,27.00
2018-03-29T04:24:41.667Z,25.40
2018-03-29T04:26:24.806Z,27.03
2018-03-29T04:28:08.508Z,23.90
2018-03-29T04:29:51.633Z,24.87
2018-03-29T04:31:34.783Z,24.10
2018-03-29T04:33:17.917Z,24.27
2018-03-29T04:35:01.069Z,25.03
2018-03-29T04:36:44.195Z,22.80
2018-03-29T04:38:27.321Z,26.13
2018-03-29T04:40:10.444Z,24.23
2018-03-29T04:41:53.589Z,24.37
2018-03-29T04:43:36.723Z,24.53
2018-03-29T04:45:19.847Z,21.67
2018-03-29T04:47:03.038Z,26.90
2018-03-29T04:48:46.173Z,24.50
2018-03-29T04:50:29.293Z,27.87
2018-03-29T04:52:12.444Z,22.20
2018-03-29T04:53:55.576Z,24.57
2018-03-29T04:55:39.465Z,23.73
2018-03-29T04:57:22.598Z,24.50
2018-03-29T04:59:05.741Z,22.77
2018-03-29T05:00:48.858Z,21.90
2018-03-29T05:02:32.011Z,23.03
2018-03-29T05:04:17.307Z,21.70
2018-03-29T05:06:02.449Z,22.13
2018-03-29T05:07:48.726Z,21.57
2018-03-29T05:09:33.285Z,22.43
2018-03-29T05:11:16.412Z,23.33
2018-03-29T05:12:59.540Z,22.57
2018-03-29T05:14:42.671Z,24.20
2018-03-29T05:16:25.795Z,21.50
2018-03-29T05:18:08.956Z,21.40
2018-03-29T05:19:52.077Z,21.93
2018-03-29T05:21:35.240Z,21.80
2018-03-29T05:23:18.385Z,19.57
2018-03-29T05:25:02.286Z,17.50
2018-03-29T05:26:49.265Z,14.70
2018-03-29T05:28:32.413Z,16.20
2018-03-29T05:30:15.565Z,17.20
2018-03-29T05:31:59.471Z,14.23
2018-03-29T05:33:42.612Z,15.30
2018-03-29T05:35:26.489Z,14.50
2018-03-29T05:37:09.621Z,13.83
2018-03-29T05:38:52.751Z,13.60
2018-03-29T05:40:35.888Z,12.70
2018-03-29T05:42:19.007Z,12.27
2018-03-29T05:44:02.153Z,11.83
2018-03-29T05:45:45.275Z,12.17
2018-03-29T05:47:28.420Z,12.83
2018-03-29T05:49:11.596Z,12.73
2018-03-29T05:50:54.721Z,13.77
2018-03-29T05:52:37.854Z,13.10
2018-03-29T05:54:21.017Z,12.50
2018-03-29T05:56:04.144Z,12.50
2018-03-29T05:57:48.038Z,11.50
2018-03-29T05:59:31.190Z,11.40
2018-03-29T06:01:15.986Z,10.10
2018-03-29T06:03:00.869Z,10.00
2018-03-29T06:04:45.447Z,10.63
2018-03-29T06:06:29.992Z,9.10
2018-03-29T06:08:14.489Z,9.50
2018-03-29T06:09:57.676Z,9.50
2018-03-29T06:11:41.574Z,8.70
2018-03-29T06:13:24.684Z,7.60
2018-03-29T06:15:13.434Z,8.00
2018-03-29T06:16:56.620Z,7.20
2018-03-29T06:18:39.758Z,6.80
2018-03-29T06:20:22.911Z,6.43
2018-03-29T06:22:06.044Z,6.30
2018-03-29T06:23:49.942Z,5.50
2018-03-29T06:25:33.089Z,5.93
2018-03-29T06:27:17.009Z,5.40
2018-03-29T06:29:00.125Z,5.70
2018-03-29T06:30:43.270Z,5.80
2018-03-29T06:32:26.466Z,6.17
2018-03-29T06:34:09.590Z,5.80
2018-03-29T06:35:52.994Z,6.87
2018-03-29T06:37:36.116Z,6.20
2018-03-29T06:39:20.082Z,6.20
2018-03-29T06:41:03.980Z,5.50
2018-03-29T06:42:47.107Z,4.90
2018-03-29T06:44:30.223Z,5.23
2018-03-29T06:46:13.356Z,5.27
2018-03-29T06:47:57.236Z,7.03
2018-03-29T06:49:40.364Z,6.17
2018-03-29T06:51:23.541Z,6.30
2018-03-29T06:53:06.680Z,5.20
2018-03-29T06:54:49.827Z,6.30
2018-03-29T06:56:32.931Z,5.37
2018-03-29T06:58:16.053Z,5.93
2018-03-29T06:59:59.173Z,6.27
2018-03-29T07:01:42.313Z,7.00
2018-03-29T07:03:25.509Z,6.57
2018-03-29T07:05:08.647Z,6.10
2018-03-29T07:06:51.802Z,5.70
2018-03-29T07:08:34.913Z,5.40
2018-03-29T07:10:18.033Z,5.13
2018-03-29T07:12:01.198Z,4.97
2018-03-29T07:13:44.329Z,8.33
2018-03-29T07:15:27.494Z,4.60
2018-03-29T07:17:10.642Z,4.90
2018-03-29T07:18:53.774Z,4.72
2018-03-29T07:20:36.913Z,4.62
2018-03-29T07:22:20.808Z,4.70
2018-03-29T07:24:03.940Z,4.60
2018-03-29T07:25:47.071Z,5.40
2018-03-29T07:27:31.972Z,5.90
2018-03-29T07:29:15.872Z,6.10
2018-03-29T07:30:59.790Z,4.57
2018-03-29T07:32:42.928Z,3.83
2018-03-29T07:34:26.832Z,3.60
2018-03-29T07:36:09.986Z,5.30
2018-03-29T07:37:53.898Z,4.30
2018-03-29T07:39:37.087Z,3.83
2018-03-29T07:41:20.198Z,4.10
2018-03-29T07:43:03.348Z,5.07
2018-03-29T07:44:46.479Z,3.37
2018-03-29T07:46:30.396Z,3.33
2018-03-29T07:48:13.517Z,3.93
2018-03-29T07:49:56.640Z,3.93
2018-03-29T07:51:39.817Z,3.83
2018-03-29T07:53:23.470Z,4.73
2018-03-29T07:55:06.667Z,3.73
2018-03-29T07:56:50.729Z,3.67
2018-03-29T07:58:34.699Z,3.73
2018-03-29T08:00:18.606Z,3.70
2018-03-29T08:02:01.740Z,5.43
2018-03-29T08:03:45.660Z,3.20
2018-03-29T08:05:28.789Z,2.87
2018-03-29T08:07:12.693Z,3.37
2018-03-29T08:08:55.820Z,3.10
2018-03-29T08:10:39.017Z,3.87
2018-03-29T08:12:22.174Z,4.27
2018-03-29T08:14:06.103Z,3.43
2018-03-29T08:15:49.232Z,3.00
2018-03-29T08:17:33.165Z,3.30
2018-03-29T08:19:17.207Z,3.70
2018-03-29T08:21:01.144Z,3.80
2018-03-29T08:22:44.286Z,3.67
2018-03-29T08:24:27.412Z,2.90
2018-03-29T08:26:10.537Z,3.40
2018-03-29T08:27:53.806Z,3.87
2018-03-29T08:29:37.712Z,3.60
2018-03-29T08:31:20.824Z,3.60
2018-03-29T08:33:03.975Z,6.20
2018-03-29T08:34:47.104Z,2.93
2018-03-29T08:36:30.230Z,3.20
2018-03-29T08:38:13.366Z,3.67
2018-03-29T08:39:56.490Z,4.03
2018-03-29T08:41:39.633Z,3.63
2018-03-29T08:43:22.762Z,2.70
2018-03-29T08:45:05.882Z,2.90
2018-03-29T08:46:49.002Z,3.63
2018-03-29T08:48:32.916Z,2.70
2018-03-29T08:50:16.044Z,2.87
2018-03-29T08:51:59.942Z,3.07
2018-03-29T08:53:43.069Z,3.20
